createdAt,value
2018-09-30T00:02:12.822Z,99.90
2018-09-30T00:04:40.231Z,99.90
2018-09-30T00:07:07.600Z,99.90
2018-09-30T00:09:34.998Z,99.90
2018-09-30T00:12:02.876Z,99.90
2018-09-30T00:14:30.280Z,99.90
2018-09-30T00:16:58.499Z,99.90
2018-09-30T00:19:25.830Z,99.90
2018-09-30T00:21:53.258Z,99.90
2018-09-30T00:24:26.270Z,99.90
2018-09-30T00:26:57.500Z,99.90
2018-09-30T00:29:25.848Z,99.90
2018-09-30T00:31:53.304Z,99.90
2018-09-30T00:34:28.813Z,99.90
2018-09-30T00:36:58.322Z,99.90
2018-09-30T00:39:26.461Z,99.90
2018-09-30T00:41:54.095Z,99.90
2018-09-30T00:44:22.146Z,99.90
2018-09-30T00:46:49.932Z,99.90
2018-09-30T00:49:17.421Z,99.90
2018-09-30T00:51:44.933Z,99.90
2018-09-30T00:54:13.133Z,99.90
2018-09-30T00:56:40.593Z,99.90
2018-09-30T00:59:08.285Z,99.90
2018-09-30T01:01:35.694Z,99.90
2018-09-30T01:04:03.363Z,99.90
2018-09-30T01:06:30.779Z,99.90
2018-09-30T01:08:58.134Z,99.90
2018-09-30T01:11:25.624Z,99.90
2018-09-30T01:13:53.061Z,99.90
2018-09-30T01:16:20.551Z,99.90
2018-09-30T01:18:47.946Z,99.90
2018-09-30T01:21:15.307Z,99.90
2018-09-30T01:23:42.809Z,99.90
2018-09-30T01:26:10.242Z,99.90
2018-09-30T01:28:37.636Z,99.90
2018-09-30T01:31:05.241Z,99.90
2018-09-30T01:33:32.695Z,99.90
2018-09-30T01:36:00.099Z,99.90
2018-09-30T01:38:27.504Z,99.90
2018-09-30T01:40:54.931Z,99.90
2018-09-30T01:43:22.328Z,99.90
2018-09-30T01:45:49.966Z,99.90
2018-09-30T01:48:17.334Z,99.90
2018-09-30T01:50:44.701Z,99.90
2018-09-30T01:53:12.123Z,99.90
2018-09-30T01:55:39.486Z,99.90
2018-09-30T01:58:06.945Z,99.90
2018-09-30T02:00:34.398Z,99.90
2018-09-30T02:03:01.879Z,99.90
2018-09-30T02:05:29.262Z,99.90
2018-09-30T02:07:56.770Z,99.90
2018-09-30T02:10:24.264Z,99.90
2018-09-30T02:12:51.685Z,99.90
2018-09-30T02:15:19.118Z,99.90
2018-09-30T02:17:46.523Z,99.90
2018-09-30T02:20:14.061Z,99.90
2018-09-30T02:22:41.474Z,99.90
2018-09-30T02:25:08.988Z,99.90
2018-09-30T02:27:36.367Z,99.90
2018-09-30T02:30:04.139Z,99.90
2018-09-30T02:32:31.530Z,99.90
2018-09-30T02:34:58.878Z,99.90
2018-09-30T02:37:26.312Z,99.90
2018-09-30T02:39:53.699Z,99.90
2018-09-30T02:42:21.103Z,99.90
2018-09-30T02:44:48.566Z,99.90
2018-09-30T02:47:15.958Z,99.90
2018-09-30T02:49:43.709Z,99.90
2018-09-30T02:52:11.455Z,99.90
2018-09-30T02:54:39.229Z,99.90
2018-09-30T02:57:06.921Z,99.90
2018-09-30T02:59:34.801Z,99.90
2018-09-30T03:02:02.478Z,99.90
2018-09-30T03:04:30.170Z,99.90
2018-09-30T03:07:03.436Z,99.90
2018-09-30T03:09:31.872Z,99.90
2018-09-30T03:11:59.572Z,99.90
2018-09-30T03:14:27.073Z,99.90
2018-09-30T03:16:54.470Z,99.90
2018-09-30T03:19:23.397Z,99.90
2018-09-30T03:21:51.182Z,99.90
2018-09-30T03:24:19.587Z,99.90
2018-09-30T03:26:47.306Z,99.90
2018-09-30T03:29:14.699Z,99.90
2018-09-30T03:31:42.079Z,99.90
2018-09-30T03:34:09.475Z,99.90
2018-09-30T03:36:36.887Z,99.90
2018-09-30T03:39:06.061Z,99.90
2018-09-30T03:41:33.517Z,99.90
2018-09-30T03:44:00.973Z,99.90
2018-09-30T03:46:28.302Z,99.90
2018-09-30T03:48:55.805Z,99.90
2018-09-30T03:51:23.168Z,99.90
2018-09-30T03:53:50.680Z,99.90
2018-09-30T03:56:18.096Z,99.90
2018-09-30T03:58:45.731Z,99.90
2018-09-30T04:01:13.588Z,99.90
2018-09-30T04:03:41.373Z,99.90
2018-09-30T04:06:09.089Z,99.90
2018-09-30T04:08:36.986Z,99.90
2018-09-30T04:11:04.676Z,99.90
2018-09-30T04:13:32.366Z,99.90
2018-09-30T04:15:59.854Z,99.90
2018-09-30T04:18:27.236Z,99.90
2018-09-30T04:20:54.654Z,99.90
2018-09-30T04:23:22.083Z,99.90
2018-09-30T04:25:49.526Z,99.90
2018-09-30T04:28:16.982Z,99.90
2018-09-30T04:30:44.388Z,99.90
2018-09-30T04:33:11.794Z,99.90
2018-09-30T04:35:39.228Z,99.90
2018-09-30T04:38:06.696Z,99.90
2018-09-30T04:40:34.582Z,99.90
2018-09-30T04:43:02.277Z,99.90
2018-09-30T04:45:29.762Z,99.90
2018-09-30T04:47:57.162Z,99.90
2018-09-30T04:50:24.530Z,99.90
2018-09-30T04:52:51.908Z,99.90
2018-09-30T04:55:19.302Z,99.90
2018-09-30T04:57:46.752Z,99.90
2018-09-30T05:00:14.146Z,99.90
2018-09-30T05:02:41.685Z,99.90
2018-09-30T05:05:09.098Z,99.90
2018-09-30T05:07:36.527Z,99.90
2018-09-30T05:10:04.094Z,99.90
2018-09-30T05:12:31.753Z,99.90
2018-09-30T05:15:00.678Z,99.90
2018-09-30T05:17:28.195Z,99.90
2018-09-30T05:19:56.338Z,99.90
2018-09-30T05:22:24.020Z,99.90
2018-09-30T05:24:51.537Z,99.90
2018-09-30T05:27:19.060Z,99.90
2018-09-30T05:29:46.398Z,99.90
2018-09-30T05:32:13.879Z,99.90
2018-09-30T05:34:41.276Z,99.90
2018-09-30T05:37:08.770Z,99.90
2018-09-30T05:39:36.218Z,99.90
2018-09-30T05:42:03.629Z,99.90
2018-09-30T05:44:30.947Z,99.90
2018-09-30T05:46:58.276Z,99.90
2018-09-30T05:49:25.840Z,99.90
2018-09-30T05:51:53.263Z,99.90
2018-09-30T05:54:20.919Z,99.90
2018-09-30T05:56:48.435Z,99.90
2018-09-30T05:59:15.902Z,99.90
2018-09-30T06:01:43.365Z,99.90
2018-09-30T06:04:10.954Z,99.90
2018-09-30T06:06:38.584Z,99.90
2018-09-30T06:09:10.208Z,99.90
2018-09-30T06:11:37.579Z,99.90
2018-09-30T06:14:05.245Z,99.90
2018-09-30T06:16:32.598Z,99.90
2018-09-30T06:19:00.317Z,99.90
2018-09-30T06:21:27.845Z,99.90
2018-09-30T06:23:55.376Z,99.90
2018-09-30T06:26:22.871Z,99.90
2018-09-30T06:28:50.352Z,99.90
2018-09-30T06:31:17.835Z,99.90
2018-09-30T06:33:45.267Z,99.90
2018-09-30T06:36:12.614Z,99.90
2018-09-30T06:38:39.970Z,99.90
2018-09-30T06:41:07.639Z,99.90
2018-09-30T06:43:35.052Z,99.90
2018-09-30T06:46:02.616Z,99.90
2018-09-30T06:48:30.130Z,99.90
2018-09-30T06:50:57.703Z,99.90
2018-09-30T06:53:25.132Z,99.90
2018-09-30T06:55:52.551Z,99.90
2018-09-30T06:58:19.890Z,99.90
2018-09-30T07:00:47.400Z,99.90
2018-09-30T07:03:14.820Z,99.90
2018-09-30T07:05:42.206Z,99.90
2018-09-30T07:08:09.659Z,99.90
2018-09-30T07:10:37.187Z,99.90
2018-09-30T07:13:04.566Z,99.90
2018-09-30T07:15:31.986Z,99.90
2018-09-30T07:17:59.437Z,99.90
2018-09-30T07:20:26.930Z,99.90
2018-09-30T07:22:54.286Z,99.90
2018-09-30T07:25:21.702Z,99.90
2018-09-30T07:27:49.132Z,99.90
2018-09-30T07:30:16.601Z,99.90
2018-09-30T07:32:44.198Z,99.90
2018-09-30T07:35:11.542Z,99.90
2018-09-30T07:37:38.962Z,99.90
2018-09-30T07:40:06.350Z,99.90
2018-09-30T07:42:33.758Z,99.90
2018-09-30T07:45:01.132Z,99.90
2018-09-30T07:47:28.560Z,99.90
2018-09-30T07:49:56.009Z,99.90
2018-09-30T07:52:23.421Z,99.90
2018-09-30T07:54:50.850Z,99.90
2018-09-30T07:57:18.314Z,99.90
2018-09-30T07:59:45.770Z,99.90
2018-09-30T08:02:13.161Z,99.90
2018-09-30T08:04:40.679Z,99.90
2018-09-30T08:07:08.376Z,99.90
2018-09-30T08:09:35.791Z,99.90
2018-09-30T08:12:03.178Z,99.90
2018-09-30T08:14:30.650Z,99.90
2018-09-30T08:16:58.113Z,99.90
2018-09-30T08:19:25.840Z,99.90
2018-09-30T08:21:53.260Z,99.90
2018-09-30T08:24:20.931Z,99.90
2018-09-30T08:26:48.258Z,99.90
2018-09-30T08:29:15.738Z,99.90
2018-09-30T08:31:43.217Z,99.90
2018-09-30T08:34:10.623Z,99.90
2018-09-30T08:36:38.090Z,99.90
2018-09-30T08:39:06.976Z,99.90
2018-09-30T08:41:34.373Z,99.90
2018-09-30T08:44:01.830Z,99.90
2018-09-30T08:46:29.228Z,99.90
2018-09-30T08:48:56.712Z,99.90
2018-09-30T08:51:24.185Z,99.90
2018-09-30T08:53:51.698Z,99.90
2018-09-30T08:56:19.091Z,99.90
2018-09-30T08:58:46.542Z,99.90
2018-09-30T09:01:13.978Z,99.90
2018-09-30T09:03:41.348Z,99.90
2018-09-30T09:06:08.834Z,99.90
2018-09-30T09:08:36.251Z,99.90
2018-09-30T09:11:03.786Z,99.90
2018-09-30T09:13:31.208Z,99.90
2018-09-30T09:15:58.640Z,99.90
2018-09-30T09:18:26.029Z,99.90
2018-09-30T09:20:53.524Z,99.90
2018-09-30T09:23:20.945Z,99.90
2018-09-30T09:25:48.369Z,99.90
2018-09-30T09:28:15.794Z,99.90
2018-09-30T09:30:43.196Z,99.90
2018-09-30T09:33:10.691Z,99.90
2018-09-30T09:35:37.988Z,99.90
2018-09-30T09:38:05.536Z,99.90
2018-09-30T09:40:32.985Z,99.90
2018-09-30T09:43:00.352Z,99.90
2018-09-30T09:45:27.829Z,99.90
2018-09-30T09:47:55.217Z,99.90
2018-09-30T09:50:22.625Z,99.90
2018-09-30T09:52:50.075Z,99.90
2018-09-30T09:55:17.455Z,99.90
2018-09-30T09:57:44.971Z,99.90
2018-09-30T10:00:17.055Z,99.90
2018-09-30T10:02:44.482Z,99.90
2018-09-30T10:05:11.959Z,99.90
2018-09-30T10:07:39.373Z,99.90
2018-09-30T10:10:08.031Z,99.90
2018-09-30T10:12:35.439Z,99.50
2018-09-30T10:15:02.847Z,99.90
2018-09-30T10:17:30.240Z,98.50
2018-09-30T10:19:57.708Z,98.90
2018-09-30T10:22:25.100Z,98.70
2018-09-30T10:24:52.454Z,99.40
2018-09-30T10:27:19.810Z,98.30
2018-09-30T10:29:47.233Z,99.40
2018-09-30T10:32:14.723Z,97.70
2018-09-30T10:34:42.063Z,97.50
2018-09-30T10:37:09.426Z,97.70
2018-09-30T10:39:36.764Z,97.40
2018-09-30T10:42:04.320Z,97.80
2018-09-30T10:44:31.771Z,96.30
2018-09-30T10:46:59.293Z,97.40
2018-09-30T10:49:26.786Z,96.20
2018-09-30T10:51:54.385Z,95.60
2018-09-30T10:54:21.910Z,95.60
2018-09-30T10:56:49.343Z,95.20
2018-09-30T10:59:16.974Z,96.00
2018-09-30T11:01:44.415Z,96.10
2018-09-30T11:04:12.941Z,94.90
2018-09-30T11:06:40.398Z,95.40
2018-09-30T11:09:07.930Z,95.80
2018-09-30T11:11:35.395Z,95.30
2018-09-30T11:14:03.422Z,96.10
2018-09-30T11:16:31.031Z,94.60
2018-09-30T11:18:58.371Z,94.70
2018-09-30T11:21:25.834Z,95.00
2018-09-30T11:23:53.225Z,96.10
2018-09-30T11:26:20.540Z,95.00
2018-09-30T11:28:48.029Z,95.40
2018-09-30T11:31:15.353Z,94.40
2018-09-30T11:33:44.612Z,94.30
2018-09-30T11:36:12.064Z,94.80
2018-09-30T11:38:39.537Z,94.40
2018-09-30T11:41:06.984Z,94.50
2018-09-30T11:43:34.351Z,96.10
2018-09-30T11:46:01.718Z,94.70
2018-09-30T11:48:29.184Z,94.00
2018-09-30T11:50:56.619Z,93.70
2018-09-30T11:53:24.104Z,93.50
2018-09-30T11:55:51.642Z,93.70
2018-09-30T11:58:18.956Z,95.70
2018-09-30T12:00:46.744Z,94.20
2018-09-30T12:03:14.253Z,94.00
2018-09-30T12:05:41.687Z,93.90
2018-09-30T12:08:09.147Z,94.00
2018-09-30T12:10:36.573Z,93.40
2018-09-30T12:13:03.956Z,93.50
2018-09-30T12:15:31.436Z,93.70
2018-09-30T12:17:58.995Z,92.90
2018-09-30T12:20:26.929Z,93.70
2018-09-30T12:22:54.323Z,92.90
2018-09-30T12:25:21.758Z,92.70
2018-09-30T12:27:49.976Z,93.10
2018-09-30T12:30:17.673Z,93.60
2018-09-30T12:32:45.467Z,95.10
2018-09-30T12:35:13.235Z,94.80
2018-09-30T12:37:40.661Z,93.90
2018-09-30T12:40:08.095Z,94.70
2018-09-30T12:42:36.466Z,94.50
2018-09-30T12:45:04.250Z,94.10
2018-09-30T12:47:31.709Z,93.20
2018-09-30T12:49:59.131Z,93.60
2018-09-30T12:52:26.515Z,94.50
2018-09-30T12:54:54.002Z,93.70
2018-09-30T12:57:21.502Z,93.60
2018-09-30T12:59:49.031Z,94.90
2018-09-30T13:02:16.682Z,95.00
2018-09-30T13:04:44.264Z,93.50
2018-09-30T13:07:18.554Z,93.30
2018-09-30T13:09:45.970Z,94.50
2018-09-30T13:12:13.973Z,93.30
2018-09-30T13:14:42.503Z,93.10
2018-09-30T13:17:10.012Z,94.20
2018-09-30T13:19:37.516Z,93.60
2018-09-30T13:22:05.115Z,93.50
2018-09-30T13:24:32.497Z,93.50
2018-09-30T13:27:00.096Z,92.90
2018-09-30T13:29:27.516Z,93.60
2018-09-30T13:31:54.903Z,93.20
2018-09-30T13:34:22.407Z,92.90
2018-09-30T13:36:49.929Z,95.00
2018-09-30T13:39:17.347Z,93.50
2018-09-30T13:41:44.819Z,94.80
2018-09-30T13:44:12.269Z,94.70
2018-09-30T13:46:39.713Z,94.50
2018-09-30T13:49:07.166Z,95.20
2018-09-30T13:51:34.603Z,95.30
2018-09-30T13:54:01.997Z,95.50
2018-09-30T13:56:29.495Z,96.10
2018-09-30T13:58:56.934Z,95.30
2018-09-30T14:01:24.370Z,94.80
2018-09-30T14:03:51.858Z,95.00
2018-09-30T14:06:19.337Z,95.20
2018-09-30T14:08:47.757Z,94.90
2018-09-30T14:11:15.453Z,94.80
2018-09-30T14:13:43.153Z,95.10
2018-09-30T14:16:10.673Z,94.00
2018-09-30T14:18:38.124Z,94.10
2018-09-30T14:21:05.515Z,94.30
2018-09-30T14:23:32.953Z,95.00
2018-09-30T14:26:00.446Z,94.30
2018-09-30T14:28:27.969Z,94.30
2018-09-30T14:30:55.430Z,94.00
2018-09-30T14:33:22.837Z,93.50
2018-09-30T14:35:50.344Z,93.20
2018-09-30T14:38:18.153Z,93.60
2018-09-30T14:40:45.696Z,92.80
2018-09-30T14:43:13.229Z,92.90
2018-09-30T14:45:40.921Z,94.00
2018-09-30T14:48:08.493Z,93.10
2018-09-30T14:50:35.815Z,95.10
2018-09-30T14:53:03.303Z,95.60
2018-09-30T14:55:30.799Z,95.80
2018-09-30T14:57:58.310Z,94.80
2018-09-30T15:00:25.782Z,95.20
2018-09-30T15:02:53.154Z,95.50
2018-09-30T15:05:20.489Z,95.60
2018-09-30T15:07:47.898Z,94.10
2018-09-30T15:10:15.239Z,94.10
2018-09-30T15:12:42.738Z,93.10
2018-09-30T15:15:10.185Z,92.80
2018-09-30T15:17:37.769Z,93.50
2018-09-30T15:20:05.334Z,95.30
2018-09-30T15:22:32.943Z,95.40
2018-09-30T15:25:00.558Z,95.70
2018-09-30T15:27:28.262Z,96.90
2018-09-30T15:29:55.730Z,96.50
2018-09-30T15:32:23.125Z,96.80
2018-09-30T15:34:50.664Z,97.50
2018-09-30T15:37:18.153Z,97.40
2018-09-30T15:39:45.634Z,96.90
2018-09-30T15:42:13.066Z,97.50
2018-09-30T15:44:41.467Z,98.50
2018-09-30T15:47:08.939Z,97.70
2018-09-30T15:49:36.797Z,98.50
2018-09-30T15:52:04.224Z,97.70
2018-09-30T15:54:32.666Z,98.20
2018-09-30T15:57:00.153Z,97.90
2018-09-30T15:59:27.529Z,97.90
2018-09-30T16:01:54.939Z,98.20
2018-09-30T16:04:22.402Z,98.20
2018-09-30T16:06:49.820Z,98.60
2018-09-30T16:09:17.331Z,99.30
2018-09-30T16:11:44.861Z,99.70
2018-09-30T16:14:12.358Z,99.00
2018-09-30T16:16:39.851Z,99.90
2018-09-30T16:19:07.389Z,99.90
2018-09-30T16:21:34.914Z,99.90
2018-09-30T16:24:02.395Z,99.90
2018-09-30T16:26:29.899Z,99.90
2018-09-30T16:28:57.211Z,99.90
2018-09-30T16:31:24.562Z,99.90
2018-09-30T16:33:52.008Z,99.90
2018-09-30T16:36:19.600Z,99.90
2018-09-30T16:38:47.015Z,99.90
2018-09-30T16:41:14.553Z,99.90
2018-09-30T16:43:41.836Z,99.90
2018-09-30T16:46:09.217Z,99.90
2018-09-30T16:48:36.910Z,99.90
2018-09-30T16:51:04.346Z,99.90
2018-09-30T16:53:31.834Z,99.90
2018-09-30T16:55:59.389Z,99.90
2018-09-30T16:58:26.893Z,99.90
2018-09-30T17:00:54.260Z,99.90
2018-09-30T17:03:25.016Z,99.90
2018-09-30T17:05:56.739Z,99.90
2018-09-30T17:08:25.277Z,99.90
2018-09-30T17:10:55.625Z,99.90
2018-09-30T17:13:29.513Z,99.90
2018-09-30T17:15:58.815Z,99.90
2018-09-30T17:18:45.098Z,99.90
2018-09-30T17:21:20.545Z,99.90
2018-09-30T17:23:49.559Z,99.90
2018-09-30T17:26:19.309Z,99.90
2018-09-30T17:28:46.787Z,99.90
2018-09-30T17:31:20.339Z,99.90
2018-09-30T17:33:51.289Z,99.90
2018-09-30T17:36:18.885Z,99.90
2018-09-30T17:38:46.701Z,99.90
2018-09-30T17:41:14.229Z,99.90
2018-09-30T17:43:41.692Z,99.90
2018-09-30T17:46:09.067Z,99.90
2018-09-30T17:48:36.727Z,99.90
2018-09-30T17:51:04.326Z,99.90
2018-09-30T17:53:31.820Z,99.90
2018-09-30T17:55:59.183Z,99.90
2018-09-30T17:58:26.639Z,99.90
2018-09-30T18:00:54.106Z,99.90
2018-09-30T18:03:21.505Z,99.90
2018-09-30T18:05:48.965Z,99.90
2018-09-30T18:08:16.436Z,99.90
2018-09-30T18:10:43.948Z,99.90
2018-09-30T18:13:11.410Z,99.90
2018-09-30T18:15:38.903Z,99.90
2018-09-30T18:18:20.390Z,99.90
2018-09-30T18:20:52.395Z,99.90
2018-09-30T18:23:20.109Z,99.90
2018-09-30T18:25:48.328Z,99.90
2018-09-30T18:28:18.827Z,99.90
2018-09-30T18:30:48.361Z,99.90
2018-09-30T18:33:19.617Z,99.90
2018-09-30T18:35:48.917Z,99.90
2018-09-30T18:38:18.651Z,99.90
2018-09-30T18:40:49.696Z,99.90
2018-09-30T18:43:18.368Z,99.90
2018-09-30T18:45:46.734Z,99.90
2018-09-30T18:48:15.734Z,99.90
2018-09-30T18:50:45.355Z,99.90
2018-09-30T18:53:14.799Z,99.90
2018-09-30T18:55:45.284Z,99.90
2018-09-30T18:58:15.950Z,99.90
2018-09-30T19:00:45.342Z,99.90
2018-09-30T19:03:16.733Z,99.90
2018-09-30T19:05:47.301Z,99.90
2018-09-30T19:08:16.226Z,99.90
2018-09-30T19:10:47.116Z,99.90
2018-09-30T19:13:15.702Z,99.90
2018-09-30T19:15:46.076Z,99.90
2018-09-30T19:18:16.686Z,99.90
2018-09-30T19:20:46.472Z,99.90
2018-09-30T19:23:17.421Z,99.90
2018-09-30T19:25:46.014Z,99.90
2018-09-30T19:28:16.392Z,99.90
2018-09-30T19:30:45.912Z,99.90
2018-09-30T19:33:24.330Z,99.90
2018-09-30T19:35:57.372Z,99.90
2018-09-30T19:38:26.263Z,99.90
2018-09-30T19:40:58.110Z,99.90
2018-09-30T19:43:26.246Z,99.90
2018-09-30T19:45:56.306Z,99.90
2018-09-30T19:48:27.586Z,99.90
2018-09-30T19:50:57.789Z,99.90
2018-09-30T19:53:26.722Z,99.90
2018-09-30T19:55:56.673Z,99.90
2018-09-30T19:58:27.589Z,99.90
2018-09-30T20:00:57.266Z,99.90
2018-09-30T20:03:28.389Z,99.90
2018-09-30T20:05:57.036Z,99.90
2018-09-30T20:08:27.481Z,99.90
2018-09-30T20:10:56.549Z,99.90
2018-09-30T20:13:26.922Z,99.90
2018-09-30T20:15:57.047Z,99.90
2018-09-30T20:18:26.056Z,99.90
2018-09-30T20:20:56.239Z,99.90
2018-09-30T20:23:25.653Z,99.90
2018-09-30T20:25:55.571Z,99.90
2018-09-30T20:28:32.830Z,99.90
2018-09-30T20:31:01.647Z,99.90
2018-09-30T20:33:30.526Z,99.90
2018-09-30T20:36:00.462Z,99.90
2018-09-30T20:38:30.201Z,99.90
2018-09-30T20:40:57.601Z,99.90
2018-09-30T20:43:25.163Z,99.90
2018-09-30T20:45:56.014Z,99.90
2018-09-30T20:48:25.264Z,99.90
2018-09-30T20:50:56.283Z,99.90
2018-09-30T20:53:25.697Z,99.90
2018-09-30T20:55:55.035Z,99.90
2018-09-30T20:58:25.604Z,99.90
2018-09-30T21:00:56.921Z,99.90
2018-09-30T21:03:26.097Z,99.90
2018-09-30T21:06:25.185Z,99.90
2018-09-30T21:08:55.076Z,99.90
2018-09-30T21:11:25.483Z,99.90
2018-09-30T21:13:53.115Z,99.90
2018-09-30T21:16:21.574Z,99.90
2018-09-30T21:18:51.694Z,99.90
2018-09-30T21:21:19.141Z,99.90
2018-09-30T21:23:46.597Z,99.90
2018-09-30T21:26:14.030Z,99.90
2018-09-30T21:28:41.463Z,99.90
2018-09-30T21:31:08.829Z,99.90
2018-09-30T21:33:36.160Z,99.90
2018-09-30T21:36:03.629Z,99.90
2018-09-30T21:38:31.108Z,99.90
2018-09-30T21:40:58.690Z,99.90
2018-09-30T21:43:26.127Z,99.90
2018-09-30T21:45:53.478Z,99.90
2018-09-30T21:48:21.398Z,99.90
2018-09-30T21:50:49.059Z,99.90
2018-09-30T21:53:17.230Z,99.90
2018-09-30T21:55:44.618Z,99.90
2018-09-30T21:58:12.122Z,99.90
2018-09-30T22:00:41.975Z,99.90
2018-09-30T22:03:11.673Z,99.90
2018-09-30T22:05:39.192Z,99.90
2018-09-30T22:08:08.042Z,99.90
2018-09-30T22:10:35.900Z,99.90
2018-09-30T22:13:03.458Z,99.90
2018-09-30T22:15:31.167Z,99.90
2018-09-30T22:17:58.599Z,99.90
2018-09-30T22:20:26.196Z,99.90
2018-09-30T22:22:53.646Z,99.90
2018-09-30T22:25:21.042Z,99.90
2018-09-30T22:27:48.750Z,99.90
2018-09-30T22:30:16.256Z,99.90
2018-09-30T22:32:43.786Z,99.90
2018-09-30T22:35:11.301Z,99.90
2018-09-30T22:37:38.802Z,99.90
2018-09-30T22:40:06.858Z,99.90
2018-09-30T22:42:34.342Z,99.90
2018-09-30T22:45:01.779Z,99.90
2018-09-30T22:47:29.165Z,99.90
2018-09-30T22:49:56.555Z,99.90
2018-09-30T22:52:23.980Z,99.90
2018-09-30T22:54:51.489Z,99.90
2018-09-30T22:57:18.901Z,99.90
2018-09-30T22:59:46.256Z,99.90
2018-09-30T23:02:13.685Z,99.90
2018-09-30T23:04:41.111Z,99.90
2018-09-30T23:07:08.643Z,99.90
2018-09-30T23:09:36.133Z,99.90
2018-09-30T23:12:03.506Z,99.90
2018-09-30T23:14:30.919Z,99.90
2018-09-30T23:16:58.389Z,99.90
2018-09-30T23:19:25.779Z,99.90
2018-09-30T23:21:53.176Z,99.90
2018-09-30T23:24:20.578Z,99.90
2018-09-30T23:26:48.099Z,99.90
2018-09-30T23:29:15.598Z,99.90
2018-09-30T23:31:42.975Z,99.90
2018-09-30T23:34:10.380Z,99.90
2018-09-30T23:36:37.984Z,99.90
2018-09-30T23:39:07.388Z,99.90
2018-09-30T23:41:35.062Z,99.90
2018-09-30T23:44:02.434Z,99.90
2018-09-30T23:46:29.850Z,99.90
2018-09-30T23:48:57.293Z,99.90
2018-09-30T23:51:24.826Z,99.90
2018-09-30T23:53:52.310Z,99.90
2018-09-30T23:56:19.726Z,99.90
2018-09-30T23:58:47.098Z,99.90
